Time;durP1;ratioP1;P1;durP2;ratioP2;P2;SDS_P1;SDS_P2;PMS_P1;PMS_P2;Temp;Humidity;BMP_temperature;BMP_pressure;BME280_temperature;BME280_humidity;BME280_pressure;Samples;Min_cycle;Max_cycle;Signal;HPM_P1;HPM_P2
2021/11/22 00:00:58;;;;;;;4.47;2.33;;;;;;;7.70;88.27;102236.00;5036624;28;20053;-80
2021/11/22 00:03:23;;;;;;;4.97;2.20;;;;;;;7.69;88.54;102235.16;5036374;28;20038;-80
2021/11/22 00:05:49;;;;;;;5.45;2.83;;;;;;;7.74;89.80;102234.25;5036354;28;20240;-80
2021/11/22 00:08:14;;;;;;;6.50;2.90;;;;;;;7.66;88.41;102236.91;5020511;28;20213;-80
2021/11/22 00:10:40;;;;;;;9.55;2.65;;;;;;;7.69;89.22;102247.28;5017065;28;20034;-80
2021/11/22 00:13:05;;;;;;;8.25;2.03;;;;;;;7.67;89.75;102249.03;5036685;28;20025;-80
2021/11/22 00:15:31;;;;;;;9.27;2.60;;;;;;;7.64;89.31;102247.34;5037643;28;20395;-80
2021/11/22 00:17:56;;;;;;;4.85;1.98;;;;;;;7.66;90.24;102255.16;5020323;28;20041;-80
2021/11/22 00:20:22;;;;;;;2.83;1.70;;;;;;;7.73;90.77;102253.34;5020182;28;20017;-80
2021/11/22 00:22:48;;;;;;;4.88;1.63;;;;;;;7.74;91.12;102255.97;5003666;28;20337;-80
2021/11/22 00:25:14;;;;;;;6.03;1.92;;;;;;;7.76;91.51;102264.63;5034694;28;20053;-80
2021/11/22 00:27:40;;;;;;;5.47;2.50;;;;;;;7.74;91.17;102266.38;5003342;28;20313;-80
2021/11/22 00:30:06;;;;;;;10.52;2.00;;;;;;;7.72;90.21;102264.69;5026634;28;20597;-80
2021/11/22 00:32:34;;;;;;;7.63;1.77;;;;;;;7.70;90.80;102272.50;5020137;28;20025;-80
2021/11/22 00:35:00;;;;;;;6.53;1.98;;;;;;;7.63;89.45;102266.44;5023017;28;20025;-80
2021/11/22 00:37:31;;;;;;;1.85;1.27;;;;;;;7.56;88.23;102269.09;5021932;28;20101;-80
2021/11/22 00:39:57;;;;;;;2.22;1.40;;;;;;;7.50;85.96;102275.22;5040261;28;20339;-80
2021/11/22 00:42:22;;;;;;;4.45;0.98;;;;;;;7.45;86.28;102280.44;5039543;28;20108;-80
2021/11/22 00:44:48;;;;;;;2.80;1.52;;;;;;;7.44;87.77;102278.72;5039825;28;20041;-80
2021/11/22 00:47:13;;;;;;;2.80;1.05;;;;;;;7.45;88.48;102290.00;5040072;28;20357;-80
2021/11/22 00:49:39;;;;;;;5.55;1.38;;;;;;;7.45;89.10;102298.69;5026849;28;20210;-80
2021/11/22 00:52:04;;;;;;;3.83;1.70;;;;;;;7.49;89.87;102299.53;5023504;28;20037;-80
2021/11/22 00:54:30;;;;;;;2.22;1.15;;;;;;;7.45;88.90;102303.03;5023296;28;20037;-80
2021/11/22 00:56:56;;;;;;;3.92;1.20;;;;;;;7.45;88.93;102303.91;5023549;28;20329;-80
2021/11/22 00:59:21;;;;;;;4.68;1.30;;;;;;;7.47;89.23;102309.97;5039453;28;20249;-80
2021/11/22 01:01:49;;;;;;;3.45;1.02;;;;;;;7.54;90.03;102310.81;5040097;28;20068;-80
2021/11/22 01:04:15;;;;;;;3.87;1.10;;;;;;;7.58;90.86;102309.94;5040827;28;20363;-80
2021/11/22 01:06:40;;;;;;;3.95;1.35;;;;;;;7.61;91.29;102311.66;5023135;28;20295;-80
2021/11/22 01:09:06;;;;;;;5.78;1.10;;;;;;;7.65;91.48;102313.38;5040891;28;20045;-80
2021/11/22 01:11:31;;;;;;;4.07;1.48;;;;;;;7.63;90.63;102323.81;5023344;28;20101;-80
2021/11/22 01:13:56;;;;;;;2.00;1.42;;;;;;;7.65;90.99;102316.84;5039931;28;20029;-80
2021/11/22 01:16:22;;;;;;;7.25;1.52;;;;;;;7.62;90.84;102313.38;5039864;28;20033;-80
2021/11/22 01:18:48;;;;;;;3.53;1.17;;;;;;;7.47;86.32;102319.53;5041146;28;20349;-80
2021/11/22 01:21:13;;;;;;;1.95;1.08;;;;;;;7.45;88.02;102329.97;5040054;28;20029;-80
2021/11/22 01:23:38;;;;;;;3.95;1.20;;;;;;;7.45;88.44;102331.72;5039446;28;20033;-80
2021/11/22 01:26:04;;;;;;;4.90;1.40;;;;;;;7.45;89.30;102329.09;5022954;28;20057;-80
2021/11/22 01:28:32;;;;;;;4.55;1.10;;;;;;;7.45;89.78;102334.31;5037714;28;20103;-80
2021/11/22 01:30:58;;;;;;;3.95;1.30;;;;;;;7.43;89.83;102347.34;5020433;28;20029;-80
2021/11/22 01:33:23;;;;;;;2.78;1.63;;;;;;;7.48;90.69;102350.81;5038508;28;20245;-80
2021/11/22 01:35:49;;;;;;;3.95;1.42;;;;;;;7.46;90.44;102355.19;5022496;28;20079;-80
2021/11/22 01:38:14;;;;;;;5.30;1.73;;;;;;;7.49;90.90;102357.78;5039283;28;20041;-80
2021/11/22 01:40:40;;;;;;;5.65;1.50;;;;;;;7.48;90.89;102357.78;5040314;28;20092;-80
2021/11/22 01:43:06;;;;;;;3.00;1.35;;;;;;;7.50;91.17;102356.91;5022320;28;20063;-80
2021/11/22 01:45:33;;;;;;;5.10;1.58;;;;;;;7.46;90.41;102364.75;5038966;28;20217;-80
2021/11/22 01:47:58;;;;;;;4.88;1.92;;;;;;;7.45;90.17;102363.00;5022863;28;20360;-80
2021/11/22 01:50:25;;;;;;;8.05;2.25;;;;;;;7.46;90.53;102381.25;5005364;28;20037;-80
2021/11/22 01:52:51;;;;;;;5.57;2.35;;;;;;;7.46;90.54;102377.78;5038972;28;20217;-80
2021/11/22 01:55:18;;;;;;;4.88;1.80;;;;;;;7.44;89.99;102374.28;5040059;28;20029;-80
2021/11/22 01:57:44;;;;;;;9.23;2.05;;;;;;;7.35;88.46;102385.63;5022851;28;20047;-80
2021/11/22 02:00:17;;;;;;;1.92;1.58;;;;;;;7.27;87.32;102377.81;5042111;28;20033;-80
2021/11/22 02:02:42;;;;;;;6.20;2.08;;;;;;;7.31;89.08;102381.28;5026748;28;20067;-80
2021/11/22 02:05:09;;;;;;;5.18;1.42;;;;;;;7.36;89.99;102386.50;5021295;28;20037;-80
2021/11/22 02:07:35;;;;;;;4.50;1.90;;;;;;;7.41;90.90;102384.75;5009098;28;20041;-80
2021/11/22 02:10:00;;;;;;;3.50;1.48;;;;;;;7.38;90.24;102387.34;5059893;28;20048;-80
2021/11/22 02:12:26;;;;;;;7.85;2.10;;;;;;;7.35;89.88;102389.94;5024622;28;20096;-80
2021/11/22 02:14:51;;;;;;;4.25;1.95;;;;;;;7.29;87.96;102396.94;5009068;28;20344;-80
2021/11/22 02:17:16;;;;;;;3.47;1.60;;;;;;;7.30;88.93;102403.88;5005234;28;20041;-80
2021/11/22 02:19:56;;;;;;;11.00;1.92;;;;;;;7.30;89.87;102405.63;5039204;28;20044;-80
2021/11/22 02:22:22;;;;;;;4.90;1.90;;;;;;;7.28;89.61;102395.19;5022246;28;20037;-80
2021/11/22 02:24:48;;;;;;;4.25;1.90;;;;;;;7.32;90.30;102400.41;5022056;28;20063;-80
2021/11/22 02:27:13;;;;;;;4.03;1.80;;;;;;;7.29;90.25;102396.94;5005300;28;20029;-80
2021/11/22 02:29:39;;;;;;;5.70;1.60;;;;;;;7.29;90.03;102402.16;5021462;28;20033;-80
2021/11/22 02:32:04;;;;;;;3.55;1.50;;;;;;;7.27;89.66;102408.22;5021978;28;20036;-80
2021/11/22 02:34:30;;;;;;;7.25;1.90;;;;;;;7.25;89.84;102407.34;5021512;28;20348;-80
2021/11/22 02:36:55;;;;;;;5.70;1.70;;;;;;;7.25;90.27;102420.38;5005434;28;20040;-80
2021/11/22 02:39:20;;;;;;;11.55;1.80;;;;;;;7.25;89.85;102423.00;5004876;28;20037;-80
2021/11/22 02:41:47;;;;;;;5.13;1.30;;;;;;;7.20;88.96;102411.69;4988916;28;20344;-80
2021/11/22 02:44:13;;;;;;;3.63;1.45;;;;;;;7.19;89.63;102416.06;5043106;28;20025;-80
2021/11/22 02:46:38;;;;;;;6.45;1.45;;;;;;;7.19;89.36;102428.22;5024323;28;20104;-80
2021/11/22 02:49:03;;;;;;;9.73;1.35;;;;;;;7.16;88.78;102430.81;5058771;28;20051;-80
2021/11/22 02:51:29;;;;;;;4.53;1.10;;;;;;;7.09;87.20;102424.75;5040115;28;20072;-80
2021/11/22 02:54:01;;;;;;;7.18;1.35;;;;;;;7.13;88.95;102433.41;5041135;28;20035;-80
2021/11/22 02:56:31;;;;;;;2.28;1.00;;;;;;;7.11;89.57;102436.91;5024810;28;20040;-80
2021/11/22 02:58:57;;;;;;;7.50;1.65;;;;;;;7.15;89.97;102434.28;5041427;28;20116;-80
2021/11/22 03:01:22;;;;;;;4.95;1.65;;;;;;;7.18;90.62;102431.69;5057896;28;20399;-80
2021/11/22 03:03:47;;;;;;;4.35;1.85;;;;;;;7.14;89.92;102436.03;5058913;28;20102;-80
2021/11/22 03:06:13;;;;;;;4.68;2.13;;;;;;;7.14;89.52;102443.00;5040960;28;20029;-80
2021/11/22 03:08:40;;;;;;;4.38;2.03;;;;;;;7.15;89.51;102449.91;5041056;28;20029;-80
2021/11/22 03:11:06;;;;;;;6.80;2.10;;;;;;;7.16;90.17;102452.53;5040998;28;20037;-80
2021/11/22 03:13:31;;;;;;;6.00;2.42;;;;;;;7.15;90.34;102458.63;5073420;28;20043;-80
2021/11/22 03:15:56;;;;;;;5.60;2.08;;;;;;;7.16;90.37;102455.13;5041174;28;20328;-80
2021/11/22 03:18:22;;;;;;;5.68;2.10;;;;;;;7.18;90.99;102468.16;5008355;28;20317;-79
2021/11/22 03:20:47;;;;;;;6.63;2.28;;;;;;;7.09;88.99;102463.81;5058862;28;20091;-78
2021/11/22 03:23:13;;;;;;;9.02;2.20;;;;;;;7.08;89.15;102465.56;5041561;28;20039;-78
2021/11/22 03:25:38;;;;;;;6.00;1.95;;;;;;;7.15;90.30;102471.66;5041364;28;20206;-78
2021/11/22 03:28:04;;;;;;;5.43;1.85;;;;;;;7.13;90.43;102472.50;5059674;28;20333;-78
2021/11/22 03:30:29;;;;;;;5.55;2.45;;;;;;;7.08;90.28;102470.78;5040514;28;20235;-78
2021/11/22 03:32:55;;;;;;;5.63;2.10;;;;;;;7.07;89.93;102475.97;5041590;28;20393;-78
2021/11/22 03:35:20;;;;;;;4.20;1.88;;;;;;;7.11;90.76;102481.22;5058496;28;20112;-78
2021/11/22 03:37:46;;;;;;;5.72;2.10;;;;;;;7.09;90.80;102480.34;5041351;28;20208;-78
2021/11/22 03:40:12;;;;;;;8.20;1.65;;;;;;;7.06;90.13;102488.16;5024246;28;20031;-78
2021/11/22 03:42:52;;;;;;;4.53;2.25;;;;;;;7.05;90.07;102486.41;5040538;28;20127;-78
2021/11/22 03:45:17;;;;;;;3.35;1.70;;;;;;;7.06;89.99;102492.50;5040705;28;20092;-78
2021/11/22 03:47:42;;;;;;;12.77;2.40;;;;;;;7.09;90.99;102495.97;5040376;28;20087;-78
2021/11/22 03:50:08;;;;;;;3.67;1.70;;;;;;;7.06;90.39;102493.34;5024065;28;20035;-78
2021/11/22 03:52:33;;;;;;;8.38;1.75;;;;;;;7.01;89.78;102502.91;5040606;28;20505;-79
2021/11/22 03:54:59;;;;;;;6.80;1.80;;;;;;;7.01;90.03;102504.66;5040912;28;20096;-78
2021/11/22 03:57:27;;;;;;;4.03;1.75;;;;;;;7.00;90.22;102508.97;5058292;28;20360;-78
2021/11/22 03:59:52;;;;;;;4.82;1.75;;;;;;;7.01;90.48;102513.31;5040523;28;20205;-78
2021/11/22 04:02:18;;;;;;;7.68;1.65;;;;;;;6.99;90.55;102512.44;5010179;28;20047;-78
2021/11/22 04:04:43;;;;;;;6.10;1.63;;;;;;;6.94;89.26;102514.19;5062610;28;20033;-78
2021/11/22 04:07:09;;;;;;;4.85;2.05;;;;;;;6.92;89.10;102518.53;5044390;28;20055;-78
2021/11/22 04:09:35;;;;;;;9.13;2.08;;;;;;;6.88;88.76;102525.47;5044494;28;20147;-78
2021/11/22 04:12:00;;;;;;;3.38;1.40;;;;;;;6.89;88.53;102522.00;5062707;28;20079;-78
2021/11/22 04:14:26;;;;;;;4.22;1.60;;;;;;;6.94;89.91;102531.56;5027917;28;20033;-78
2021/11/22 04:16:51;;;;;;;7.60;1.70;;;;;;;6.96;90.42;102538.50;5044432;28;20236;-78
2021/11/22 04:19:17;;;;;;;7.75;1.55;;;;;;;6.92;89.75;102536.75;5044139;28;20020;-78
2021/11/22 04:21:42;;;;;;;2.92;1.83;;;;;;;6.90;89.13;102549.78;5061463;28;20048;-78
2021/11/22 04:24:08;;;;;;;7.10;1.60;;;;;;;6.90;89.19;102552.38;5044211;28;20390;-78
2021/11/22 04:26:33;;;;;;;2.92;1.95;;;;;;;6.93;89.96;102546.31;5027069;28;20053;-78
2021/11/22 04:28:59;;;;;;;6.85;2.15;;;;;;;6.97;90.63;102555.88;5061653;28;20037;-78
2021/11/22 04:31:25;;;;;;;5.50;1.95;;;;;;;6.93;88.72;102561.94;5043575;28;20394;-78
2021/11/22 04:33:50;;;;;;;5.10;2.53;;;;;;;6.91;88.28;102561.94;5061555;28;20379;-78
2021/11/22 04:36:16;;;;;;;4.65;2.63;;;;;;;6.90;88.76;102560.19;5026839;28;20070;-78
2021/11/22 04:38:41;;;;;;;5.40;2.08;;;;;;;6.86;87.83;102558.44;5043883;28;20032;-79
2021/11/22 04:41:07;;;;;;;7.03;2.03;;;;;;;6.87;88.43;102564.53;5043396;28;20233;-78
2021/11/22 04:43:32;;;;;;;7.70;2.30;;;;;;;6.85;88.58;102571.47;5074975;28;20248;-78
2021/11/22 04:45:58;;;;;;;2.88;2.03;;;;;;;6.79;88.26;102572.31;5043411;28;20087;-78
2021/11/22 04:48:23;;;;;;;5.20;2.15;;;;;;;6.78;88.34;102575.78;5042722;28;20298;-79
2021/11/22 04:50:49;;;;;;;5.80;2.20;;;;;;;6.74;86.84;102571.44;5061517;28;20232;-78
2021/11/22 04:53:14;;;;;;;6.20;2.28;;;;;;;6.72;87.29;102570.56;5026251;28;20035;-78
2021/11/22 04:55:40;;;;;;;6.93;2.30;;;;;;;6.71;87.54;102574.91;5009940;28;20040;-78
2021/11/22 04:58:05;;;;;;;10.70;1.88;;;;;;;6.64;85.91;102578.34;5026153;28;20032;-78
2021/11/22 05:00:31;;;;;;;5.55;1.67;;;;;;;6.63;86.70;102579.22;5026035;28;20052;-78
2021/11/22 05:02:56;;;;;;;3.53;1.75;;;;;;;6.68;88.34;102585.31;5061045;28;20036;-78
2021/11/22 05:05:22;;;;;;;3.22;1.60;;;;;;;6.71;88.88;102587.03;5025460;28;20063;-78
2021/11/22 05:07:47;;;;;;;5.68;1.40;;;;;;;6.73;89.50;102593.13;5061122;28;20036;-78
2021/11/22 05:10:13;;;;;;;4.88;1.20;;;;;;;6.73;89.53;102608.75;5009969;28;20104;-79
2021/11/22 05:12:38;;;;;;;4.32;1.63;;;;;;;6.71;88.58;102600.06;5041505;28;20356;-78
2021/11/22 05:15:05;;;;;;;7.30;1.50;;;;;;;6.73;88.99;102595.72;5042878;28;20032;-78
2021/11/22 05:17:30;;;;;;;5.43;1.88;;;;;;;6.71;88.30;102611.38;5025680;28;20323;-78
2021/11/22 05:19:56;;;;;;;4.43;1.35;;;;;;;6.76;89.44;102613.97;5026410;28;20032;-78
2021/11/22 05:22:21;;;;;;;3.45;1.48;;;;;;;6.73;89.30;102616.56;5042398;28;20032;-78
2021/11/22 05:24:50;;;;;;;7.63;1.67;;;;;;;6.70;89.09;102616.56;5042645;28;20045;-78
2021/11/22 05:27:22;;;;;;;5.57;1.88;;;;;;;6.65;87.84;102623.47;5042839;28;20240;-78
2021/11/22 05:29:49;;;;;;;8.10;2.20;;;;;;;6.63;87.33;102622.59;5025706;28;20025;-79
2021/11/22 05:32:17;;;;;;;3.97;2.33;;;;;;;6.64;88.58;102624.31;5025877;28;20037;-78
2021/11/22 05:34:43;;;;;;;5.93;1.87;;;;;;;6.62;88.39;102624.34;5042288;28;20372;-78
2021/11/22 05:37:09;;;;;;;5.22;1.45;;;;;;;6.58;88.12;102629.53;5025589;28;20059;-78
2021/11/22 05:39:34;;;;;;;3.50;1.38;;;;;;;6.54;87.60;102626.88;5041802;28;20060;-78
2021/11/22 05:42:00;;;;;;;6.35;1.00;;;;;;;6.48;85.75;102629.47;5059899;28;20029;-78
2021/11/22 05:44:25;;;;;;;3.33;1.05;;;;;;;6.48;87.21;102629.47;5040701;28;20224;-78
2021/11/22 05:46:51;;;;;;;4.18;1.25;;;;;;;6.48;87.76;102639.88;5041881;28;20033;-78
2021/11/22 05:49:16;;;;;;;6.63;1.48;;;;;;;6.42;85.45;102631.16;5058919;28;20031;-78
2021/11/22 05:51:44;;;;;;;3.92;1.60;;;;;;;6.40;86.68;102636.34;5058965;28;20041;-78
2021/11/22 05:54:10;;;;;;;6.22;1.90;;;;;;;6.42;87.67;102645.06;5026299;28;20359;-78
2021/11/22 05:56:35;;;;;;;6.18;1.48;;;;;;;6.42;87.83;102652.00;5059407;28;20025;-78
2021/11/22 05:59:01;;;;;;;6.30;1.88;;;;;;;6.36;86.29;102650.22;5025338;28;20340;-78
2021/11/22 06:01:26;;;;;;;6.63;1.83;;;;;;;6.38;87.28;102647.63;5058657;28;20059;-79
2021/11/22 06:03:52;;;;;;;4.78;1.73;;;;;;;6.31;85.85;102658.03;5025447;28;20059;-78
2021/11/22 06:06:17;;;;;;;7.32;1.60;;;;;;;6.25;85.20;102652.75;5039926;28;20234;-78
2021/11/22 06:08:42;;;;;;;5.07;2.20;;;;;;;6.23;85.23;102662.28;5040732;28;20524;-78
2021/11/22 06:11:08;;;;;;;6.70;2.33;;;;;;;6.19;85.17;102670.94;5008111;28;20037;-78
2021/11/22 06:13:33;;;;;;;3.53;1.90;;;;;;;6.12;84.46;102667.41;5040893;28;20043;-78
2021/11/22 06:15:59;;;;;;;5.93;2.50;;;;;;;6.10;84.77;102673.47;5024371;28;20025;-78
2021/11/22 06:18:24;;;;;;;7.20;2.22;;;;;;;6.06;84.18;102674.34;5040641;28;20041;-78
2021/11/22 06:20:49;;;;;;;4.75;2.13;;;;;;;6.03;84.40;102680.34;5058910;28;20025;-78
2021/11/22 06:23:15;;;;;;;7.65;2.63;;;;;;;5.98;83.82;102678.59;5058587;28;20041;-78
2021/11/22 06:25:41;;;;;;;7.07;2.22;;;;;;;5.92;83.91;102685.44;5024124;28;20053;-78
2021/11/22 06:28:06;;;;;;;4.53;2.35;;;;;;;5.93;85.03;102688.91;5040675;28;20040;-79
2021/11/22 06:30:32;;;;;;;6.30;2.83;;;;;;;5.90;85.02;102692.38;5023734;28;20033;-78
2021/11/22 06:32:57;;;;;;;4.45;2.95;;;;;;;5.90;85.19;102694.97;5058571;28;20234;-78
2021/11/22 06:35:23;;;;;;;6.15;2.47;;;;;;;5.90;85.25;102697.56;5023345;28;20028;-78
2021/11/22 06:37:49;;;;;;;6.68;2.90;;;;;;;5.92;85.78;102697.59;5023843;28;20363;-78
2021/11/22 06:40:14;;;;;;;7.78;3.08;;;;;;;5.93;85.95;102702.81;5023867;28;20319;-78
2021/11/22 06:42:40;;;;;;;9.52;2.53;;;;;;;5.89;85.33;102701.00;5024179;28;20033;-78
2021/11/22 06:45:06;;;;;;;11.68;2.92;;;;;;;5.86;84.53;102707.94;5021967;28;20100;-78
2021/11/22 06:47:32;;;;;;;7.57;2.92;;;;;;;5.80;84.23;102706.13;5023878;28;20040;-78
2021/11/22 06:49:58;;;;;;;7.80;2.70;;;;;;;5.76;84.13;102712.16;5044197;28;20025;-78
2021/11/22 06:52:23;;;;;;;8.15;2.97;;;;;;;5.76;84.74;102720.81;5021452;28;20033;-78
2021/11/22 06:54:49;;;;;;;6.88;2.75;;;;;;;5.77;85.15;102725.19;5021370;28;20028;-78
2021/11/22 06:57:15;;;;;;;8.32;2.53;;;;;;;5.77;85.31;102740.78;5027162;28;20232;-78
2021/11/22 06:59:42;;;;;;;9.07;2.38;;;;;;;5.73;84.66;102746.81;5037637;28;20021;-78
2021/11/22 07:02:12;;;;;;;6.85;2.45;;;;;;;5.68;83.95;102748.50;5033840;28;20396;-78
2021/11/22 07:04:38;;;;;;;5.50;2.53;;;;;;;5.64;83.84;102756.22;5035480;28;20407;-78
2021/11/22 07:07:04;;;;;;;4.50;2.45;;;;;;;5.62;84.21;102763.16;5021350;28;20078;-78
2021/11/22 07:09:29;;;;;;;7.40;2.70;;;;;;;5.59;84.44;102771.81;5037046;28;20045;-78
2021/11/22 07:11:55;;;;;;;4.15;2.58;;;;;;;5.58;84.62;102773.53;5055559;28;20104;-78
2021/11/22 07:14:20;;;;;;;3.83;2.13;;;;;;;5.54;84.49;102776.94;5037115;28;20060;-78
2021/11/22 07:16:46;;;;;;;3.30;2.38;;;;;;;5.62;85.66;102781.34;5020941;28;20029;-78
2021/11/22 07:19:11;;;;;;;6.13;2.42;;;;;;;5.67;86.89;102782.28;5020217;28;20037;-78
2021/11/22 07:21:36;;;;;;;6.35;2.40;;;;;;;5.68;86.87;102786.63;5020050;28;20037;-78
2021/11/22 07:24:02;;;;;;;10.25;2.00;;;;;;;5.67;86.39;102792.66;5020848;28;20035;-78
2021/11/22 07:26:27;;;;;;;6.63;2.58;;;;;;;5.64;86.17;102793.53;5037568;28;20041;-78
2021/11/22 07:28:53;;;;;;;3.97;1.85;;;;;;;5.63;86.14;102796.09;5031473;28;20025;-78
2021/11/22 07:31:18;;;;;;;4.68;1.65;;;;;;;5.66;86.51;102811.75;5037454;28;20048;-78
2021/11/22 07:33:44;;;;;;;8.43;1.88;;;;;;;5.64;86.04;102810.81;5033628;28;20037;-78
2021/11/22 07:36:09;;;;;;;10.00;2.78;;;;;;;5.64;86.51;102811.72;5021415;28;20029;-78
2021/11/22 07:38:37;;;;;;;5.13;2.72;;;;;;;5.61;85.79;102818.59;5038055;28;20068;-78
2021/11/22 07:41:03;;;;;;;6.23;2.83;;;;;;;5.56;84.88;102823.72;5019627;28;20108;-78
2021/11/22 07:43:28;;;;;;;12.82;2.85;;;;;;;5.52;85.28;102825.44;5056769;28;20037;-78
2021/11/22 07:45:54;;;;;;;6.65;2.53;;;;;;;5.49;85.41;102833.19;5041149;28;20344;-78
2021/11/22 07:48:19;;;;;;;10.38;2.80;;;;;;;5.47;85.02;102834.03;5039577;28;20025;-78
2021/11/22 07:50:45;;;;;;;7.05;3.35;;;;;;;5.44;84.80;102836.56;5057254;28;20211;-78
2021/11/22 07:53:10;;;;;;;9.88;3.17;;;;;;;5.42;85.22;102835.69;5023813;28;20032;-78
2021/11/22 07:55:36;;;;;;;9.98;3.78;;;;;;;5.37;84.94;102840.84;5040610;28;20047;-78
2021/11/22 07:58:01;;;;;;;8.27;3.60;;;;;;;5.31;84.25;102840.75;5041322;28;20056;-78
2021/11/22 08:00:27;;;;;;;6.70;3.63;;;;;;;5.28;84.51;102851.13;5038495;28;20190;-78
2021/11/22 08:02:52;;;;;;;9.77;3.50;;;;;;;5.23;84.54;102853.63;5023946;28;20122;-78
2021/11/22 08:05:18;;;;;;;8.82;4.43;;;;;;;5.20;84.49;102858.78;5040716;28;20043;-78
2021/11/22 08:07:43;;;;;;;12.25;3.83;;;;;;;5.17;84.53;102853.56;5024411;28;20070;-78
2021/11/22 08:12:52;;;;;;;7.15;4.63;;;;;;;5.12;84.46;102861.28;5043004;28;20041;-78
2021/11/22 08:15:19;;;;;;;9.55;5.20;;;;;;;5.14;85.18;102863.91;5024503;28;20383;-78
2021/11/22 08:17:44;;;;;;;13.02;5.15;;;;;;;5.18;85.77;102863.97;5040608;28;20108;-78
2021/11/22 08:20:10;;;;;;;12.07;4.85;;;;;;;5.19;86.07;102868.31;5023870;28;20044;-78
2021/11/22 08:22:36;;;;;;;16.15;6.00;;;;;;;5.19;85.98;102883.88;5024229;28;20037;-78
2021/11/22 08:25:01;;;;;;;12.27;4.82;;;;;;;5.16;85.57;102878.63;5040951;28;20337;-78
2021/11/22 08:27:28;;;;;;;11.70;5.18;;;;;;;5.13;85.10;102882.91;5024028;28;20036;-78
2021/11/22 08:29:53;;;;;;;10.38;5.07;;;;;;;5.12;85.53;102884.66;5024808;28;20063;-78
2021/11/22 08:32:19;;;;;;;7.75;4.72;;;;;;;5.13;85.99;102894.19;5023615;28;20371;-78
2021/11/22 08:34:45;;;;;;;9.18;4.63;;;;;;;5.16;86.17;102889.03;5034722;28;20040;-78
2021/11/22 08:37:11;;;;;;;5.60;4.03;;;;;;;5.22;87.04;102889.97;5023910;28;20096;-78
2021/11/22 08:39:36;;;;;;;11.90;4.10;;;;;;;5.30;87.46;102890.97;5023962;28;20332;-78
2021/11/22 08:42:02;;;;;;;14.10;3.95;;;;;;;5.34;88.00;102887.56;5035699;28;20036;-78
2021/11/22 08:44:29;;;;;;;9.65;4.00;;;;;;;5.36;87.97;102891.06;5022107;28;20285;-78
2021/11/22 08:46:54;;;;;;;5.95;3.60;;;;;;;5.40;87.92;102892.81;5020505;28;20413;-78
2021/11/22 08:49:20;;;;;;;8.40;3.53;;;;;;;5.42;88.29;102896.34;5038202;28;20036;-78
2021/11/22 08:51:45;;;;;;;8.77;2.95;;;;;;;5.47;87.87;102897.25;5039702;28;20100;-78
2021/11/22 08:54:11;;;;;;;5.47;2.17;;;;;;;5.62;88.11;102900.91;5040031;28;20128;-78
2021/11/22 08:56:36;;;;;;;4.80;2.20;;;;;;;5.77;88.44;102903.72;5038805;28;20044;-78
2021/11/22 08:59:02;;;;;;;4.80;2.20;;;;;;;5.88;nan;102907.31;5052727;28;20110;-78
2021/11/22 09:01:27;;;;;;;5.45;3.13;;;;;;;5.99;89.31;102909.22;5000292;28;20053;-78
2021/11/22 09:03:54;;;;;;;4.93;2.30;;;;;;;6.03;90.16;102914.47;5038460;28;20037;-78
2021/11/22 09:06:21;;;;;;;13.80;2.65;;;;;;;6.08;90.33;102917.13;5035979;28;20383;-78
2021/11/22 09:08:47;;;;;;;4.65;2.20;;;;;;;6.08;90.18;102924.94;5007013;28;20045;-78
2021/11/22 09:11:12;;;;;;;4.07;1.90;;;;;;;6.13;90.48;102925.84;5036808;28;20067;-78
2021/11/22 09:13:38;;;;;;;5.78;2.00;;;;;;;6.19;90.69;102928.53;5036616;28;20124;-78
2021/11/22 09:16:04;;;;;;;10.20;2.50;;;;;;;6.24;90.96;102932.06;5035506;28;20087;-78
2021/11/22 09:18:29;;;;;;;4.15;1.83;;;;;;;6.26;91.09;102938.13;5019940;28;20048;-78
2021/11/22 09:20:55;;;;;;;5.00;2.10;;;;;;;6.34;91.17;102936.47;5019039;28;20041;-78
2021/11/22 09:23:20;;;;;;;2.55;1.65;;;;;;;6.41;91.23;102945.22;5019491;28;20430;-78
2021/11/22 09:25:45;;;;;;;4.60;2.60;;;;;;;6.52;91.41;102950.56;5018848;28;20045;-78
2021/11/22 09:28:11;;;;;;;9.38;2.20;;;;;;;6.52;90.86;102950.56;5037953;28;20112;-78
2021/11/22 09:30:37;;;;;;;6.75;2.70;;;;;;;6.54;90.52;102951.44;5018290;28;20028;-78
2021/11/22 09:33:04;;;;;;;3.45;2.08;;;;;;;6.61;91.10;102954.97;5009920;28;20059;-78
2021/11/22 09:35:29;;;;;;;7.25;2.25;;;;;;;6.68;91.14;102954.19;5028078;28;20294;-78
2021/11/22 09:37:55;;;;;;;2.97;1.50;;;;;;;6.77;91.56;102959.47;5018813;28;20096;-78
2021/11/22 09:40:20;;;;;;;1.90;1.58;;;;;;;6.85;91.60;102960.41;5035743;28;20045;-78
2021/11/22 09:42:46;;;;;;;7.53;2.28;;;;;;;6.94;92.02;102966.56;5018681;28;20041;-77
2021/11/22 09:45:11;;;;;;;5.30;1.88;;;;;;;6.93;92.07;102970.91;5016986;28;20029;-77
2021/11/22 09:47:37;;;;;;;10.13;1.48;;;;;;;6.85;90.61;102976.03;5017780;28;20276;-77
2021/11/22 09:50:03;;;;;;;5.13;1.60;;;;;;;6.87;90.12;102981.25;5019539;28;20206;-78
2021/11/22 09:52:29;;;;;;;5.82;1.40;;;;;;;6.95;90.59;102982.22;5024720;28;20344;-77
2021/11/22 09:54:55;;;;;;;4.22;1.50;;;;;;;7.01;91.14;102984.84;4996760;28;20151;-78
2021/11/22 09:57:20;;;;;;;5.13;1.67;;;;;;;7.06;91.29;102988.38;5000932;28;20087;-77
2021/11/22 09:59:46;;;;;;;7.63;2.20;;;;;;;7.13;91.47;102991.03;5029868;28;20044;-78
2021/11/22 10:02:12;;;;;;;5.97;1.40;;;;;;;7.18;91.70;102994.53;5014328;28;20383;-77
2021/11/22 10:04:37;;;;;;;5.00;1.70;;;;;;;7.19;91.61;102993.69;5034606;28;20033;-77
2021/11/22 10:07:04;;;;;;;2.65;1.55;;;;;;;7.20;91.75;102992.81;5018849;28;20037;-78
2021/11/22 10:09:33;;;;;;;6.97;1.42;;;;;;;7.23;91.71;102990.25;4995941;28;20029;-78
2021/11/22 10:12:03;;;;;;;;;;;;;;;7.27;91.86;102984.19;5036585;28;20375;-78
2021/11/22 10:14:29;;;;;;;4.78;1.92;;;;;;;7.23;90.94;102990.25;5017061;28;19924;-78
2021/11/22 10:16:55;;;;;;;6.07;1.42;;;;;;;7.25;90.44;102989.38;4998074;28;20777;-78
2021/11/22 10:19:20;;;;;;;4.47;1.55;;;;;;;7.30;90.33;102990.28;5026676;28;20044;-78
2021/11/22 10:21:46;;;;;;;8.68;1.77;;;;;;;7.32;90.54;102987.72;5014503;28;20032;-78
2021/11/22 10:24:12;;;;;;;5.78;1.45;;;;;;;7.29;89.64;102990.28;5014410;28;20387;-78
2021/11/22 10:26:37;;;;;;;5.07;2.00;;;;;;;7.34;90.14;102992.94;5002238;28;20344;-78
2021/11/22 10:29:02;;;;;;;7.22;1.60;;;;;;;7.35;90.34;102990.34;5035564;28;20025;-78
2021/11/22 10:31:28;;;;;;;5.15;2.00;;;;;;;7.38;89.55;102989.47;5000486;28;20368;-78
2021/11/22 10:33:56;;;;;;;6.50;2.30;;;;;;;7.46;90.29;102983.47;5022280;28;20037;-78
2021/11/22 10:36:23;;;;;;;4.70;1.92;;;;;;;7.47;90.45;102985.19;5012636;28;20021;-78
2021/11/22 10:38:57;;;;;;;6.60;1.70;;;;;;;7.44;89.22;102981.69;5037855;28;20032;-78
2021/11/22 10:41:26;;;;;;;4.82;1.63;;;;;;;7.41;88.82;102976.47;4999861;28;20025;-78
2021/11/22 10:43:54;;;;;;;3.78;1.63;;;;;;;7.37;87.90;102987.72;5035495;28;20033;-78
2021/11/22 10:46:38;;;;;;;4.78;1.85;;;;;;;7.37;88.62;102978.19;5035146;28;20248;-78
2021/11/22 10:49:09;;;;;;;5.78;1.90;;;;;;;7.42;89.28;102980.81;5034985;28;20241;-78
2021/11/22 10:51:40;;;;;;;3.78;1.30;;;;;;;7.41;86.91;102985.16;5027592;28;20059;-78
2021/11/22 10:54:06;;;;;;;2.10;1.05;;;;;;;7.48;88.05;102986.94;5016205;28;20053;-78
2021/11/22 10:56:40;;;;;;;5.97;1.10;;;;;;;7.56;88.94;102988.72;5044623;28;20065;-78
2021/11/22 10:59:13;;;;;;;7.07;1.77;;;;;;;7.64;89.84;102989.63;5016039;28;20045;-78
2021/11/22 11:01:49;;;;;;;4.60;1.67;;;;;;;7.67;90.02;102984.44;5026977;28;20111;-78
2021/11/22 11:04:22;;;;;;;2.33;1.52;;;;;;;7.68;89.73;102983.59;5024055;28;20256;-78
2021/11/22 11:07:06;;;;;;;5.07;1.50;;;;;;;7.74;90.12;102988.84;5022586;28;20290;-78
2021/11/22 11:09:36;;;;;;;5.30;1.38;;;;;;;7.79;90.55;102992.34;5028068;28;20030;-78
2021/11/22 11:12:03;;;;;;;2.50;1.33;;;;;;;7.78;88.95;102989.72;5020427;28;20026;-78
2021/11/22 11:14:29;;;;;;;7.88;1.92;;;;;;;7.75;86.99;102987.09;5016246;28;20411;-78
2021/11/22 11:16:55;;;;;;;3.03;1.40;;;;;;;7.80;88.15;102993.22;5015652;28;20042;-78
2021/11/22 11:19:20;;;;;;;6.15;1.73;;;;;;;7.80;86.83;102995.81;4991698;28;20025;-78
2021/11/22 11:21:47;;;;;;;3.53;1.05;;;;;;;7.82;87.71;102996.69;5013899;28;20033;-78
2021/11/22 11:24:13;;;;;;;4.72;1.48;;;;;;;7.78;86.93;102995.81;5023660;28;20042;-78
2021/11/22 11:26:39;;;;;;;2.00;1.60;;;;;;;7.82;86.87;102996.69;5023985;28;20038;-78
2021/11/22 11:29:05;;;;;;;2.38;1.55;;;;;;;7.84;87.13;102990.66;5000591;28;20152;-78
2021/11/22 11:31:31;;;;;;;1.90;1.63;;;;;;;7.90;88.28;102999.38;4996436;28;20041;-78